15:24
Airports
Links
Donate
Help keep this website running!
PayPal
Bitcoin
METAR
ZSSS 191500Z 14003MPS 110V170 4000 BR BKN015 09/05 Q1023 NOSIG
Current Weather Conditions at ZSSS
IFR 15:00:00 19-01-18
Altimeter:30.21 hg
Temp:9.0°c 48°f
Dew point:5.0°c 41°f
Wind:6 knots, 6.9 mph, 3 m/s, from 140°
Visibility:2.49 statute miles
1500(BKN) Broken
No significant weather changes expected within 2 hours.
Past METAR reports
IFR 14:30:00 19-01-18
Altimeter:30.21 hg
Temp:9.0°c 48°f
Dew point:5.0°c 41°f
Wind:4 knots, 4.6 mph, 2 m/s, from 120°
Visibility:2.49 statute miles
1500(BKN) Broken
No significant weather changes expected within 2 hours.
ZSSS 191430Z 12002MPS 080V160 4000 BR BKN015 09/05 Q1023 NOSIG
IFR 14:00:00 19-01-18
Altimeter:30.21 hg
Temp:9.0°c 48°f
Dew point:6.0°c 43°f
Wind:4 knots, 4.6 mph, 2 m/s, from 120°
Visibility:2.17 statute miles
1500(BKN) Broken
No significant weather changes expected within 2 hours.
ZSSS 191400Z 12002MPS 3500 BR BKN015 09/06 Q1023 NOSIG
IFR 13:30:00 19-01-18
Altimeter:30.21 hg
Temp:9.0°c 48°f
Dew point:6.0°c 43°f
Wind:2 knots, 2.3 mph, 1 m/s,
Variable direction
Visibility:2.17 statute miles
1500(BKN) Broken
No significant weather changes expected within 2 hours.
ZSSS 191330Z VRB01MPS 3500 BR BKN015 09/06 Q1023 NOSIG
IFR 13:00:00 19-01-18
Altimeter:30.21 hg
Temp:9.0°c 48°f
Dew point:6.0°c 43°f
Wind:4 knots, 4.6 mph, 2 m/s, from 30°
Visibility:2.17 statute miles
1500(BKN) Broken
No significant weather changes expected within 2 hours.
ZSSS 191300Z 03002MPS 340V070 3500 BR BKN015 09/06 Q1023 NOSIG
IFR 12:30:00 19-01-18
Altimeter:30.24 hg
Temp:9.0°c 48°f
Dew point:6.0°c 43°f
Wind:4 knots, 4.6 mph, 2 m/s, from 360°
Visibility:2.17 statute miles
1500(BKN) Broken
No significant weather changes expected within 2 hours.
ZSSS 191230Z 36002MPS 3500 BR BKN015 09/06 Q1024 NOSIG
IFR 12:00:00 19-01-18
Altimeter:30.21 hg
Temp:9.0°c 48°f
Dew point:6.0°c 43°f
Wind:4 knots, 4.6 mph, 2 m/s, from 20°
Visibility:1.86 statute miles
1500(BKN) Broken
No significant weather changes expected within 2 hours.
ZSSS 191200Z 02002MPS 340V090 3000 BR BKN015 09/06 Q1023 NOSIG
TAF
TAF ZSSS 190914Z 1912/2012 05003MPS 3000 BR BKN015 TX11/2006Z TN06/1921Z BECMG 1919/1920 1500 BR TEMPO 1920/2001 0800 FG BECMG 2001/2002 3000
Forecast at ZSSS
12:00 19-01-18 to 19:00 19-01-18
BR
Wind:6 Knots from 50°
Visibility:1.86 statute miles
1500BKN Broken
BECMG 19:00 19-01-18 to 01:00 20-01-18
BR
Wind:6 Knots from 50°
Visibility:0.93 statute miles
1500BKN Broken
TEMPO 20:00 19-01-18 to 01:00 20-01-18
FG
Visibility:0.5 statute miles
BECMG 01:00 20-01-18 to 12:00 20-01-18
BR
Wind:6 Knots from 50°
Visibility:1.86 statute miles
1500BKN Broken